createdAt,value
2022-08-23T02:31:53.161Z,90.90
2022-08-23T02:34:20.677Z,97.60
2022-08-23T02:36:47.979Z,97.70
2022-08-23T02:39:16.540Z,98.10
2022-08-23T02:41:44.060Z,98.10
2022-08-23T02:44:11.543Z,98.20
2022-08-23T02:46:38.894Z,98.20
2022-08-23T02:49:06.410Z,98.10
2022-08-23T02:51:34.871Z,98.40
2022-08-23T02:54:01.736Z,98.60
2022-08-23T02:56:28.716Z,98.50
2022-08-23T02:58:55.530Z,98.40
2022-08-23T03:01:31.894Z,98.70
2022-08-23T03:04:00.194Z,98.80
2022-08-23T03:06:27.644Z,99.10
2022-08-23T03:08:56.529Z,98.80
2022-08-23T03:11:24.982Z,98.90
2022-08-23T03:13:56.372Z,99.10
2022-08-23T07:14:10.443Z,99.10
2022-08-23T07:16:40.664Z,96.50
2022-08-23T07:19:09.320Z,96.40
2022-08-23T07:21:37.506Z,96.30
2022-08-23T07:24:04.700Z,96.10
2022-08-23T07:26:32.161Z,96.10
2022-08-23T07:28:58.976Z,95.90
2022-08-23T07:31:32.676Z,95.80
2022-08-23T07:34:01.895Z,95.70
2022-08-23T07:36:31.662Z,95.70
2022-08-23T07:38:58.961Z,95.80
2022-08-23T07:41:32.743Z,95.40
2022-08-23T07:44:02.769Z,95.30
2022-08-23T07:46:31.373Z,95.40
2022-08-23T07:48:59.917Z,95.20
2022-08-23T07:51:29.199Z,94.90
2022-08-23T07:53:56.387Z,95.00
2022-08-23T07:56:23.562Z,94.90
2022-08-23T07:58:50.620Z,94.80
2022-08-23T08:01:22.208Z,94.60
2022-08-23T08:03:53.168Z,94.40
2022-08-23T08:06:32.589Z,94.20
2022-08-23T08:09:00.468Z,94.10
2022-08-23T08:11:34.490Z,94.00
2022-08-23T08:14:06.163Z,93.70
2022-08-23T08:16:36.470Z,93.60
2022-08-23T08:31:27.412Z,93.70
2022-08-23T08:33:54.666Z,92.80
2022-08-23T08:36:49.075Z,92.50
2022-08-23T08:39:20.088Z,92.50
2022-08-23T08:42:24.893Z,92.10
2022-08-23T08:44:53.912Z,91.80
2022-08-23T08:47:39.510Z,91.50
2022-08-23T08:50:06.545Z,91.50
2022-08-23T08:52:38.717Z,90.90
2022-08-23T08:55:20.071Z,90.90
2022-08-23T08:57:50.978Z,90.40
2022-08-23T09:00:22.429Z,90.40
2022-08-23T09:02:50.523Z,90.00
2022-08-23T09:05:27.332Z,89.80
2022-08-23T09:08:14.342Z,90.00
2022-08-23T09:11:01.793Z,89.80
2022-08-23T09:13:53.647Z,88.80
2022-08-23T09:16:45.788Z,88.90
2022-08-23T09:19:12.707Z,88.50
2022-08-23T09:21:48.822Z,88.30
2022-08-23T09:24:16.610Z,87.20
2022-08-23T09:26:43.937Z,86.90
2022-08-23T09:29:23.734Z,87.30
2022-08-23T09:31:52.948Z,87.60
2022-08-23T09:34:37.805Z,86.80
2022-08-23T09:37:13.462Z,86.20
2022-08-23T09:39:44.577Z,84.20
2022-08-23T09:42:27.230Z,84.20
2022-08-23T09:44:54.788Z,83.80
2022-08-23T09:47:30.239Z,84.50
2022-08-23T09:50:06.943Z,84.30
2022-08-23T09:52:38.024Z,84.40
2022-08-23T09:55:09.708Z,82.60
2022-08-23T09:57:37.197Z,83.00
2022-08-23T10:00:16.727Z,82.80
2022-08-23T10:02:44.548Z,82.90
2022-08-23T10:05:40.698Z,81.80
2022-08-23T10:08:10.536Z,81.50
2022-08-23T10:10:48.052Z,81.70
2022-08-23T10:13:18.316Z,81.50
2022-08-23T10:16:11.970Z,81.20
2022-08-23T10:19:07.723Z,79.50
2022-08-23T10:21:49.820Z,79.70
2022-08-23T10:24:28.461Z,79.30
2022-08-23T10:28:06.055Z,79.30
2022-08-23T10:31:00.034Z,80.30
2022-08-23T10:33:35.376Z,77.50
2022-08-23T10:36:21.515Z,75.90
2022-08-23T10:39:06.287Z,74.60
2022-08-23T10:41:57.424Z,74.30
2022-08-23T10:49:28.571Z,72.20
2022-08-23T10:51:57.573Z,68.60
2022-08-23T10:54:45.880Z,68.90
2022-08-23T19:18:45.009Z,67.40
2022-08-23T19:21:14.338Z,74.60
2022-08-23T19:23:42.174Z,74.60
2022-08-23T19:26:10.582Z,74.40
2022-08-23T19:28:38.129Z,74.90
2022-08-23T19:31:05.420Z,74.70
2022-08-23T19:33:32.581Z,74.80
2022-08-23T19:35:59.723Z,75.40
2022-08-23T19:38:27.859Z,75.10
2022-08-23T19:40:57.956Z,75.20
2022-08-23T19:43:25.723Z,75.40
2022-08-23T19:45:53.339Z,75.50
2022-08-23T19:48:23.603Z,76.10
2022-08-23T19:50:50.888Z,75.90
2022-08-23T19:53:17.828Z,76.40
2022-08-23T19:55:45.117Z,76.70
2022-08-23T19:58:14.169Z,76.70
2022-08-23T20:00:43.129Z,77.20
2022-08-23T20:03:11.988Z,77.50
2022-08-23T20:05:39.295Z,77.60
2022-08-23T20:08:06.145Z,78.00
2022-08-23T20:10:33.105Z,77.90
2022-08-23T20:13:01.010Z,78.00
2022-08-23T20:15:29.182Z,78.30
2022-08-23T20:17:56.457Z,78.40
2022-08-23T20:20:23.565Z,79.00
2022-08-23T20:23:09.179Z,78.90
2022-08-23T20:25:36.880Z,79.30
2022-08-23T20:28:08.128Z,79.60
2022-08-23T20:30:37.697Z,80.00
2022-08-23T20:33:05.039Z,79.90
2022-08-23T20:35:31.989Z,80.00
2022-08-23T20:37:58.958Z,80.30
2022-08-23T20:40:26.102Z,80.40
2022-08-23T20:42:53.074Z,80.70
2022-08-23T20:45:20.206Z,80.80
2022-08-23T20:47:47.132Z,80.80
2022-08-23T20:50:14.188Z,80.90
2022-08-23T20:52:41.129Z,82.20
2022-08-23T20:55:10.953Z,81.70
2022-08-23T20:57:38.819Z,81.80
